sensor_id;sensor_type;location;lat;lon;timestamp;P1;P2;P0
47741;PMS5003;33504;52.066;6.096;2023-02-01T00:00:55;10;8;
47741;PMS5003;33504;52.066;6.096;2023-02-01T00:03:22;12;9;
47741;PMS5003;33504;52.066;6.096;2023-02-01T00:05:54;10;7;
47741;PMS5003;33504;52.066;6.096;2023-02-01T00:08:22;7;7;
47741;PMS5003;33504;52.066;6.096;2023-02-01T00:10:57;12;10;
47741;PMS5003;33504;52.066;6.096;2023-02-01T00:13:27;9;8;
47741;PMS5003;33504;52.066;6.096;2023-02-01T00:16:01;7;6;
47741;PMS5003;33504;52.066;6.096;2023-02-01T00:18:29;6;5;
47741;PMS5003;33504;52.066;6.096;2023-02-01T00:20:56;6;6;
47741;PMS5003;33504;52.066;6.096;2023-02-01T00:23:23;8;5;
47741;PMS5003;33504;52.066;6.096;2023-02-01T00:25:51;8;5;
47741;PMS5003;33504;52.066;6.096;2023-02-01T00:28:18;10;7;
47741;PMS5003;33504;52.066;6.096;2023-02-01T00:30:45;7;7;
47741;PMS5003;33504;52.066;6.096;2023-02-01T00:33:12;6;4;
47741;PMS5003;33504;52.066;6.096;2023-02-01T00:35:39;7;6;
47741;PMS5003;33504;52.066;6.096;2023-02-01T00:38:07;14;9;
47741;PMS5003;33504;52.066;6.096;2023-02-01T00:40:33;7;6;
47741;PMS5003;33504;52.066;6.096;2023-02-01T00:43:00;8;7;
47741;PMS5003;33504;52.066;6.096;2023-02-01T00:45:27;9;7;
47741;PMS5003;33504;52.066;6.096;2023-02-01T00:47:54;8;5;
47741;PMS5003;33504;52.066;6.096;2023-02-01T00:50:20;9;7;
47741;PMS5003;33504;52.066;6.096;2023-02-01T00:52:47;6;5;
47741;PMS5003;33504;52.066;6.096;2023-02-01T00:55:15;7;6;
47741;PMS5003;33504;52.066;6.096;2023-02-01T00:57:42;13;8;
47741;PMS5003;33504;52.066;6.096;2023-02-01T01:00:09;6;4;
47741;PMS5003;33504;52.066;6.096;2023-02-01T01:02:37;5;3;
47741;PMS5003;33504;52.066;6.096;2023-02-01T01:05:04;7;5;
47741;PMS5003;33504;52.066;6.096;2023-02-01T01:07:31;8;4;
47741;PMS5003;33504;52.066;6.096;2023-02-01T01:09:58;8;5;
47741;PMS5003;33504;52.066;6.096;2023-02-01T01:12:26;7;5;
47741;PMS5003;33504;52.066;6.096;2023-02-01T01:14:53;6;6;
47741;PMS5003;33504;52.066;6.096;2023-02-01T01:17:19;10;9;
47741;PMS5003;33504;52.066;6.096;2023-02-01T01:19:47;7;7;
47741;PMS5003;33504;52.066;6.096;2023-02-01T01:22:13;12;10;
47741;PMS5003;33504;52.066;6.096;2023-02-01T01:24:40;7;7;
47741;PMS5003;33504;52.066;6.096;2023-02-01T01:27:07;5;3;
47741;PMS5003;33504;52.066;6.096;2023-02-01T01:29:34;5;5;
47741;PMS5003;33504;52.066;6.096;2023-02-01T01:32:01;7;5;
47741;PMS5003;33504;52.066;6.096;2023-02-01T01:34:28;6;4;
47741;PMS5003;33504;52.066;6.096;2023-02-01T01:36:55;8;7;
47741;PMS5003;33504;52.066;6.096;2023-02-01T01:39:22;9;7;
47741;PMS5003;33504;52.066;6.096;2023-02-01T01:41:49;6;6;
47741;PMS5003;33504;52.066;6.096;2023-02-01T01:46:15;9;7;
47741;PMS5003;33504;52.066;6.096;2023-02-01T01:48:43;5;4;
47741;PMS5003;33504;52.066;6.096;2023-02-01T01:51:10;7;4;
47741;PMS5003;33504;52.066;6.096;2023-02-01T01:53:42;8;7;
47741;PMS5003;33504;52.066;6.096;2023-02-01T01:56:12;6;4;
47741;PMS5003;33504;52.066;6.096;2023-02-01T01:58:40;9;6;
47741;PMS5003;33504;52.066;6.096;2023-02-01T02:01:07;13;6;
47741;PMS5003;33504;52.066;6.096;2023-02-01T02:03:35;10;7;
47741;PMS5003;33504;52.066;6.096;2023-02-01T02:06:16;11;6;
47741;PMS5003;33504;52.066;6.096;2023-02-01T02:08:53;7;4;
47741;PMS5003;33504;52.066;6.096;2023-02-01T02:11:20;10;5;
47741;PMS5003;33504;52.066;6.096;2023-02-01T02:13:48;11;8;
47741;PMS5003;33504;52.066;6.096;2023-02-01T02:16:22;10;7;
47741;PMS5003;33504;52.066;6.096;2023-02-01T02:19:04;5;4;
47741;PMS5003;33504;52.066;6.096;2023-02-01T02:21:52;6;4;
47741;PMS5003;33504;52.066;6.096;2023-02-01T02:24:43;8;6;
47741;PMS5003;33504;52.066;6.096;2023-02-01T02:27:28;9;5;
47741;PMS5003;33504;52.066;6.096;2023-02-01T02:30:22;5;3;
47741;PMS5003;33504;52.066;6.096;2023-02-01T02:32:41;6;4;
47741;PMS5003;33504;52.066;6.096;2023-02-01T02:35:20;6;4;
47741;PMS5003;33504;52.066;6.096;2023-02-01T02:37:57;5;4;
47741;PMS5003;33504;52.066;6.096;2023-02-01T02:40:34;5;5;
47741;PMS5003;33504;52.066;6.096;2023-02-01T02:43:10;5;4;
47741;PMS5003;33504;52.066;6.096;2023-02-01T02:45:41;8;7;
47741;PMS5003;33504;52.066;6.096;2023-02-01T02:48:16;7;6;
47741;PMS5003;33504;52.066;6.096;2023-02-01T02:50:49;6;5;
47741;PMS5003;33504;52.066;6.096;2023-02-01T02:53:24;4;4;
47741;PMS5003;33504;52.066;6.096;2023-02-01T02:55:58;7;5;
47741;PMS5003;33504;52.066;6.096;2023-02-01T02:58:26;4;4;
47741;PMS5003;33504;52.066;6.096;2023-02-01T03:00:53;9;9;
47741;PMS5003;33504;52.066;6.096;2023-02-01T03:03:23;9;6;
47741;PMS5003;33504;52.066;6.096;2023-02-01T03:05:50;6;5;
47741;PMS5003;33504;52.066;6.096;2023-02-01T03:08:18;5;5;
47741;PMS5003;33504;52.066;6.096;2023-02-01T03:10:49;7;6;
47741;PMS5003;33504;52.066;6.096;2023-02-01T03:13:24;7;6;
47741;PMS5003;33504;52.066;6.096;2023-02-01T03:15:59;8;6;
47741;PMS5003;33504;52.066;6.096;2023-02-01T03:18:32;7;4;
47741;PMS5003;33504;52.066;6.096;2023-02-01T03:21:09;6;6;
47741;PMS5003;33504;52.066;6.096;2023-02-01T03:23:42;9;5;
47741;PMS5003;33504;52.066;6.096;2023-02-01T03:26:14;13;9;
47741;PMS5003;33504;52.066;6.096;2023-02-01T03:28:45;9;7;
47741;PMS5003;33504;52.066;6.096;2023-02-01T03:31:18;11;7;
47741;PMS5003;33504;52.066;6.096;2023-02-01T03:33:45;6;4;
47741;PMS5003;33504;52.066;6.096;2023-02-01T03:36:15;6;5;
47741;PMS5003;33504;52.066;6.096;2023-02-01T03:38:49;9;6;
47741;PMS5003;33504;52.066;6.096;2023-02-01T03:41:23;10;9;
47741;PMS5003;33504;52.066;6.096;2023-02-01T03:43:55;8;5;
47741;PMS5003;33504;52.066;6.096;2023-02-01T03:46:28;6;4;
47741;PMS5003;33504;52.066;6.096;2023-02-01T03:49:00;10;6;
47741;PMS5003;33504;52.066;6.096;2023-02-01T03:51:31;10;8;
47741;PMS5003;33504;52.066;6.096;2023-02-01T03:54:00;3;3;
47741;PMS5003;33504;52.066;6.096;2023-02-01T03:56:30;7;7;
47741;PMS5003;33504;52.066;6.096;2023-02-01T03:58:59;6;5;
47741;PMS5003;33504;52.066;6.096;2023-02-01T04:01:27;6;4;
47741;PMS5003;33504;52.066;6.096;2023-02-01T04:03:55;7;5;
47741;PMS5003;33504;52.066;6.096;2023-02-01T04:06:23;7;6;
47741;PMS5003;33504;52.066;6.096;2023-02-01T04:08:50;9;6;
47741;PMS5003;33504;52.066;6.096;2023-02-01T04:11:18;5;5;
47741;PMS5003;33504;52.066;6.096;2023-02-01T04:13:45;10;7;
47741;PMS5003;33504;52.066;6.096;2023-02-01T04:16:12;8;6;
47741;PMS5003;33504;52.066;6.096;2023-02-01T04:18:39;5;4;
47741;PMS5003;33504;52.066;6.096;2023-02-01T04:21:06;5;5;
47741;PMS5003;33504;52.066;6.096;2023-02-01T04:23:34;8;8;
47741;PMS5003;33504;52.066;6.096;2023-02-01T04:26:01;9;8;
47741;PMS5003;33504;52.066;6.096;2023-02-01T04:28:30;10;6;
47741;PMS5003;33504;52.066;6.096;2023-02-01T04:30:57;11;8;
47741;PMS5003;33504;52.066;6.096;2023-02-01T04:33:24;8;5;
47741;PMS5003;33504;52.066;6.096;2023-02-01T04:35:51;7;5;
47741;PMS5003;33504;52.066;6.096;2023-02-01T04:38:18;6;4;
47741;PMS5003;33504;52.066;6.096;2023-02-01T04:40:46;8;6;
47741;PMS5003;33504;52.066;6.096;2023-02-01T04:43:14;5;5;
47741;PMS5003;33504;52.066;6.096;2023-02-01T04:45:41;6;5;
47741;PMS5003;33504;52.066;6.096;2023-02-01T04:48:12;7;5;
47741;PMS5003;33504;52.066;6.096;2023-02-01T04:50:39;8;5;
47741;PMS5003;33504;52.066;6.096;2023-02-01T04:53:07;7;5;
47741;PMS5003;33504;52.066;6.096;2023-02-01T04:55:34;5;4;
47741;PMS5003;33504;52.066;6.096;2023-02-01T04:58:01;9;7;
47741;PMS5003;33504;52.066;6.096;2023-02-01T05:00:28;7;6;
47741;PMS5003;33504;52.066;6.096;2023-02-01T05:02:55;8;6;
47741;PMS5003;33504;52.066;6.096;2023-02-01T05:05:22;9;6;
47741;PMS5003;33504;52.066;6.096;2023-02-01T05:07:50;8;6;
47741;PMS5003;33504;52.066;6.096;2023-02-01T05:10:16;7;5;
47741;PMS5003;33504;52.066;6.096;2023-02-01T05:12:43;7;6;
47741;PMS5003;33504;52.066;6.096;2023-02-01T05:15:10;12;7;
47741;PMS5003;33504;52.066;6.096;2023-02-01T05:17:38;13;11;
47741;PMS5003;33504;52.066;6.096;2023-02-01T05:20:05;5;5;
47741;PMS5003;33504;52.066;6.096;2023-02-01T05:22:32;5;5;
47741;PMS5003;33504;52.066;6.096;2023-02-01T05:25:00;7;6;
47741;PMS5003;33504;52.066;6.096;2023-02-01T05:27:28;6;4;
47741;PMS5003;33504;52.066;6.096;2023-02-01T05:29:56;7;5;
47741;PMS5003;33504;52.066;6.096;2023-02-01T05:32:23;7;5;
47741;PMS5003;33504;52.066;6.096;2023-02-01T05:34:50;10;7;
47741;PMS5003;33504;52.066;6.096;2023-02-01T05:37:17;7;6;
47741;PMS5003;33504;52.066;6.096;2023-02-01T05:39:44;11;11;
47741;PMS5003;33504;52.066;6.096;2023-02-01T05:42:12;13;12;
47741;PMS5003;33504;52.066;6.096;2023-02-01T05:44:39;11;7;
47741;PMS5003;33504;52.066;6.096;2023-02-01T05:47:05;5;5;
47741;PMS5003;33504;52.066;6.096;2023-02-01T05:49:33;14;13;
47741;PMS5003;33504;52.066;6.096;2023-02-01T05:52:00;11;11;
47741;PMS5003;33504;52.066;6.096;2023-02-01T05:54:27;14;12;
47741;PMS5003;33504;52.066;6.096;2023-02-01T05:56:54;20;19;
47741;PMS5003;33504;52.066;6.096;2023-02-01T05:59:21;24;21;
47741;PMS5003;33504;52.066;6.096;2023-02-01T06:01:48;10;9;
47741;PMS5003;33504;52.066;6.096;2023-02-01T06:04:15;14;11;
47741;PMS5003;33504;52.066;6.096;2023-02-01T06:06:42;15;14;
47741;PMS5003;33504;52.066;6.096;2023-02-01T06:09:10;13;11;
47741;PMS5003;33504;52.066;6.096;2023-02-01T06:11:37;17;14;
47741;PMS5003;33504;52.066;6.096;2023-02-01T06:14:05;13;11;
47741;PMS5003;33504;52.066;6.096;2023-02-01T06:16:32;17;16;
47741;PMS5003;33504;52.066;6.096;2023-02-01T06:18:59;15;14;
47741;PMS5003;33504;52.066;6.096;2023-02-01T06:21:26;12;9;
47741;PMS5003;33504;52.066;6.096;2023-02-01T06:23:53;11;9;
47741;PMS5003;33504;52.066;6.096;2023-02-01T06:26:21;12;11;
47741;PMS5003;33504;52.066;6.096;2023-02-01T06:28:48;10;10;
47741;PMS5003;33504;52.066;6.096;2023-02-01T06:31:15;11;9;
47741;PMS5003;33504;52.066;6.096;2023-02-01T06:33:43;13;10;
47741;PMS5003;33504;52.066;6.096;2023-02-01T06:36:10;18;16;
47741;PMS5003;33504;52.066;6.096;2023-02-01T06:38:37;15;14;
47741;PMS5003;33504;52.066;6.096;2023-02-01T06:41:05;11;10;
47741;PMS5003;33504;52.066;6.096;2023-02-01T06:43:32;15;12;
47741;PMS5003;33504;52.066;6.096;2023-02-01T06:46:00;15;11;
47741;PMS5003;33504;52.066;6.096;2023-02-01T06:48:28;18;16;
47741;PMS5003;33504;52.066;6.096;2023-02-01T06:50:55;18;18;
47741;PMS5003;33504;52.066;6.096;2023-02-01T06:53:23;18;16;
47741;PMS5003;33504;52.066;6.096;2023-02-01T06:55:51;24;22;
47741;PMS5003;33504;52.066;6.096;2023-02-01T06:58:19;16;15;
47741;PMS5003;33504;52.066;6.096;2023-02-01T07:00:47;6;6;
47741;PMS5003;33504;52.066;6.096;2023-02-01T07:03:15;8;7;
47741;PMS5003;33504;52.066;6.096;2023-02-01T07:05:42;19;16;
47741;PMS5003;33504;52.066;6.096;2023-02-01T07:08:09;7;5;
47741;PMS5003;33504;52.066;6.096;2023-02-01T07:10:36;8;6;
47741;PMS5003;33504;52.066;6.096;2023-02-01T07:13:04;8;7;
47741;PMS5003;33504;52.066;6.096;2023-02-01T07:15:31;13;11;
47741;PMS5003;33504;52.066;6.096;2023-02-01T07:17:59;12;11;
47741;PMS5003;33504;52.066;6.096;2023-02-01T07:20:26;10;7;
47741;PMS5003;33504;52.066;6.096;2023-02-01T07:22:54;14;12;
47741;PMS5003;33504;52.066;6.096;2023-02-01T07:25:22;18;13;
47741;PMS5003;33504;52.066;6.096;2023-02-01T07:27:49;11;7;
47741;PMS5003;33504;52.066;6.096;2023-02-01T07:30:17;13;12;
47741;PMS5003;33504;52.066;6.096;2023-02-01T07:32:45;17;15;
47741;PMS5003;33504;52.066;6.096;2023-02-01T07:35:12;14;13;
47741;PMS5003;33504;52.066;6.096;2023-02-01T07:37:38;14;11;
47741;PMS5003;33504;52.066;6.096;2023-02-01T07:40:05;19;19;
47741;PMS5003;33504;52.066;6.096;2023-02-01T07:42:34;22;18;
47741;PMS5003;33504;52.066;6.096;2023-02-01T07:45:01;19;15;
47741;PMS5003;33504;52.066;6.096;2023-02-01T07:47:29;5;4;
47741;PMS5003;33504;52.066;6.096;2023-02-01T07:49:56;10;8;
47741;PMS5003;33504;52.066;6.096;2023-02-01T07:52:23;7;6;
47741;PMS5003;33504;52.066;6.096;2023-02-01T07:54:50;7;6;
47741;PMS5003;33504;52.066;6.096;2023-02-01T07:57:17;11;8;
47741;PMS5003;33504;52.066;6.096;2023-02-01T07:59:44;6;4;
47741;PMS5003;33504;52.066;6.096;2023-02-01T08:02:11;14;14;
47741;PMS5003;33504;52.066;6.096;2023-02-01T08:04:39;12;11;
47741;PMS5003;33504;52.066;6.096;2023-02-01T08:07:05;17;14;
47741;PMS5003;33504;52.066;6.096;2023-02-01T08:09:33;19;17;
47741;PMS5003;33504;52.066;6.096;2023-02-01T08:12:00;26;25;
47741;PMS5003;33504;52.066;6.096;2023-02-01T08:14:27;22;20;
47741;PMS5003;33504;52.066;6.096;2023-02-01T08:16:54;13;12;
47741;PMS5003;33504;52.066;6.096;2023-02-01T08:19:21;14;12;
47741;PMS5003;33504;52.066;6.096;2023-02-01T08:21:48;13;10;
47741;PMS5003;33504;52.066;6.096;2023-02-01T08:24:15;15;13;
47741;PMS5003;33504;52.066;6.096;2023-02-01T08:26:43;19;17;
47741;PMS5003;33504;52.066;6.096;2023-02-01T08:29:10;12;11;
47741;PMS5003;33504;52.066;6.096;2023-02-01T08:31:38;15;14;
47741;PMS5003;33504;52.066;6.096;2023-02-01T08:34:05;9;7;
47741;PMS5003;33504;52.066;6.096;2023-02-01T08:36:32;13;12;
47741;PMS5003;33504;52.066;6.096;2023-02-01T08:38:59;13;7;
47741;PMS5003;33504;52.066;6.096;2023-02-01T08:41:28;6;4;
47741;PMS5003;33504;52.066;6.096;2023-02-01T08:43:56;5;4;
47741;PMS5003;33504;52.066;6.096;2023-02-01T08:46:24;4;4;
47741;PMS5003;33504;52.066;6.096;2023-02-01T08:48:51;5;3;
47741;PMS5003;33504;52.066;6.096;2023-02-01T08:51:19;10;10;
47741;PMS5003;33504;52.066;6.096;2023-02-01T08:53:48;8;5;
47741;PMS5003;33504;52.066;6.096;2023-02-01T08:56:15;6;5;
47741;PMS5003;33504;52.066;6.096;2023-02-01T08:58:43;6;5;
47741;PMS5003;33504;52.066;6.096;2023-02-01T09:01:12;8;7;
47741;PMS5003;33504;52.066;6.096;2023-02-01T09:03:40;12;10;
47741;PMS5003;33504;52.066;6.096;2023-02-01T09:06:09;5;5;
47741;PMS5003;33504;52.066;6.096;2023-02-01T09:08:38;9;7;
47741;PMS5003;33504;52.066;6.096;2023-02-01T09:11:06;9;8;
47741;PMS5003;33504;52.066;6.096;2023-02-01T09:13:36;6;4;
47741;PMS5003;33504;52.066;6.096;2023-02-01T09:16:03;6;6;
47741;PMS5003;33504;52.066;6.096;2023-02-01T09:18:31;6;4;
47741;PMS5003;33504;52.066;6.096;2023-02-01T09:20:57;8;6;
47741;PMS5003;33504;52.066;6.096;2023-02-01T09:23:25;11;10;
47741;PMS5003;33504;52.066;6.096;2023-02-01T09:25:52;5;4;
47741;PMS5003;33504;52.066;6.096;2023-02-01T09:28:19;5;4;
47741;PMS5003;33504;52.066;6.096;2023-02-01T09:30:46;5;4;
47741;PMS5003;33504;52.066;6.096;2023-02-01T09:33:13;4;3;
47741;PMS5003;33504;52.066;6.096;2023-02-01T09:35:40;5;4;
47741;PMS5003;33504;52.066;6.096;2023-02-01T09:38:07;5;4;
47741;PMS5003;33504;52.066;6.096;2023-02-01T09:40:34;9;6;
47741;PMS5003;33504;52.066;6.096;2023-02-01T09:43:06;8;4;
47741;PMS5003;33504;52.066;6.096;2023-02-01T09:45:45;5;5;
47741;PMS5003;33504;52.066;6.096;2023-02-01T09:48:23;7;6;
47741;PMS5003;33504;52.066;6.096;2023-02-01T09:50:55;7;5;
47741;PMS5003;33504;52.066;6.096;2023-02-01T09:53:25;8;8;
47741;PMS5003;33504;52.066;6.096;2023-02-01T09:55:58;8;6;
47741;PMS5003;33504;52.066;6.096;2023-02-01T09:58:32;9;8;
47741;PMS5003;33504;52.066;6.096;2023-02-01T10:01:04;10;10;
47741;PMS5003;33504;52.066;6.096;2023-02-01T10:03:41;7;5;
47741;PMS5003;33504;52.066;6.096;2023-02-01T10:06:14;9;7;
47741;PMS5003;33504;52.066;6.096;2023-02-01T10:09:27;10;6;
47741;PMS5003;33504;52.066;6.096;2023-02-01T10:12:20;8;7;
47741;PMS5003;33504;52.066;6.096;2023-02-01T10:15:15;10;6;
47741;PMS5003;33504;52.066;6.096;2023-02-01T10:17:54;6;5;
47741;PMS5003;33504;52.066;6.096;2023-02-01T10:20:36;10;9;
47741;PMS5003;33504;52.066;6.096;2023-02-01T10:23:25;6;5;
47741;PMS5003;33504;52.066;6.096;2023-02-01T10:26:05;6;6;
47741;PMS5003;33504;52.066;6.096;2023-02-01T10:28:44;8;8;
47741;PMS5003;33504;52.066;6.096;2023-02-01T10:31:15;9;6;
47741;PMS5003;33504;52.066;6.096;2023-02-01T10:33:44;6;6;
47741;PMS5003;33504;52.066;6.096;2023-02-01T10:36:15;8;5;
47741;PMS5003;33504;52.066;6.096;2023-02-01T10:38:47;18;13;
47741;PMS5003;33504;52.066;6.096;2023-02-01T10:41:15;10;9;
47741;PMS5003;33504;52.066;6.096;2023-02-01T10:43:48;13;11;
47741;PMS5003;33504;52.066;6.096;2023-02-01T10:46:19;8;7;
47741;PMS5003;33504;52.066;6.096;2023-02-01T10:48:47;12;10;
47741;PMS5003;33504;52.066;6.096;2023-02-01T10:51:17;9;6;
47741;PMS5003;33504;52.066;6.096;2023-02-01T10:53:50;10;9;
47741;PMS5003;33504;52.066;6.096;2023-02-01T10:56:22;7;7;
47741;PMS5003;33504;52.066;6.096;2023-02-01T10:58:51;11;7;
47741;PMS5003;33504;52.066;6.096;2023-02-01T11:01:27;18;14;
47741;PMS5003;33504;52.066;6.096;2023-02-01T11:03:57;9;9;
47741;PMS5003;33504;52.066;6.096;2023-02-01T11:06:27;26;26;
47741;PMS5003;33504;52.066;6.096;2023-02-01T11:08:56;22;19;
47741;PMS5003;33504;52.066;6.096;2023-02-01T11:11:25;21;19;
47741;PMS5003;33504;52.066;6.096;2023-02-01T11:13:54;8;8;
47741;PMS5003;33504;52.066;6.096;2023-02-01T11:16:29;11;10;
47741;PMS5003;33504;52.066;6.096;2023-02-01T11:18:59;12;10;
47741;PMS5003;33504;52.066;6.096;2023-02-01T11:21:27;18;18;
47741;PMS5003;33504;52.066;6.096;2023-02-01T11:23:55;16;13;
47741;PMS5003;33504;52.066;6.096;2023-02-01T11:26:26;14;13;
47741;PMS5003;33504;52.066;6.096;2023-02-01T11:28:56;16;15;
47741;PMS5003;33504;52.066;6.096;2023-02-01T11:31:27;24;21;
47741;PMS5003;33504;52.066;6.096;2023-02-01T11:33:57;30;29;
47741;PMS5003;33504;52.066;6.096;2023-02-01T11:36:27;20;20;
47741;PMS5003;33504;52.066;6.096;2023-02-01T11:39:07;8;6;
47741;PMS5003;33504;52.066;6.096;2023-02-01T11:41:57;18;17;
47741;PMS5003;33504;52.066;6.096;2023-02-01T11:44:29;17;15;
47741;PMS5003;33504;52.066;6.096;2023-02-01T11:47:32;18;17;
47741;PMS5003;33504;52.066;6.096;2023-02-01T11:50:09;19;14;
47741;PMS5003;33504;52.066;6.096;2023-02-01T11:52:49;21;20;
47741;PMS5003;33504;52.066;6.096;2023-02-01T11:55:29;15;14;
47741;PMS5003;33504;52.066;6.096;2023-02-01T11:56:09;14;13;
47741;PMS5003;33504;52.066;6.096;2023-02-01T11:58:54;18;16;
47741;PMS5003;33504;52.066;6.096;2023-02-01T12:01:52;16;15;
47741;PMS5003;33504;52.066;6.096;2023-02-01T12:05:10;18;16;
47741;PMS5003;33504;52.066;6.096;2023-02-01T12:07:54;14;13;
47741;PMS5003;33504;52.066;6.096;2023-02-01T12:10:40;18;15;
47741;PMS5003;33504;52.066;6.096;2023-02-01T12:13:28;18;16;
47741;PMS5003;33504;52.066;6.096;2023-02-01T12:16:08;21;17;
47741;PMS5003;33504;52.066;6.096;2023-02-01T12:18:48;6;6;
47741;PMS5003;33504;52.066;6.096;2023-02-01T12:21:31;10;7;
47741;PMS5003;33504;52.066;6.096;2023-02-01T12:24:19;7;6;
47741;PMS5003;33504;52.066;6.096;2023-02-01T12:27:00;12;8;
47741;PMS5003;33504;52.066;6.096;2023-02-01T12:29:47;6;6;
47741;PMS5003;33504;52.066;6.096;2023-02-01T12:32:29;8;7;
47741;PMS5003;33504;52.066;6.096;2023-02-01T12:35:16;7;5;
47741;PMS5003;33504;52.066;6.096;2023-02-01T12:37:58;6;5;
47741;PMS5003;33504;52.066;6.096;2023-02-01T12:40:43;9;6;
47741;PMS5003;33504;52.066;6.096;2023-02-01T12:43:22;7;5;
47741;PMS5003;33504;52.066;6.096;2023-02-01T12:45:56;10;4;
47741;PMS5003;33504;52.066;6.096;2023-02-01T12:48:27;7;3;
47741;PMS5003;33504;52.066;6.096;2023-02-01T12:50:59;8;7;
47741;PMS5003;33504;52.066;6.096;2023-02-01T12:53:33;7;6;
47741;PMS5003;33504;52.066;6.096;2023-02-01T12:56:11;6;6;
47741;PMS5003;33504;52.066;6.096;2023-02-01T12:58:44;10;7;
47741;PMS5003;33504;52.066;6.096;2023-02-01T13:01:15;7;5;
47741;PMS5003;33504;52.066;6.096;2023-02-01T13:04:00;7;4;
47741;PMS5003;33504;52.066;6.096;2023-02-01T13:06:32;7;4;
47741;PMS5003;33504;52.066;6.096;2023-02-01T13:09:04;5;4;
47741;PMS5003;33504;52.066;6.096;2023-02-01T13:11:37;5;4;
47741;PMS5003;33504;52.066;6.096;2023-02-01T13:14:10;4;3;
47741;PMS5003;33504;52.066;6.096;2023-02-01T13:16:47;7;6;
47741;PMS5003;33504;52.066;6.096;2023-02-01T13:19:18;6;4;
47741;PMS5003;33504;52.066;6.096;2023-02-01T13:21:49;10;7;
47741;PMS5003;33504;52.066;6.096;2023-02-01T13:24:26;4;3;
47741;PMS5003;33504;52.066;6.096;2023-02-01T13:26:59;7;6;
47741;PMS5003;33504;52.066;6.096;2023-02-01T13:29:27;2;2;
47741;PMS5003;33504;52.066;6.096;2023-02-01T13:32:07;4;3;
47741;PMS5003;33504;52.066;6.096;2023-02-01T13:34:51;6;5;
47741;PMS5003;33504;52.066;6.096;2023-02-01T13:37:34;5;5;
47741;PMS5003;33504;52.066;6.096;2023-02-01T13:40:44;5;5;
47741;PMS5003;33504;52.066;6.096;2023-02-01T13:43:17;7;5;
47741;PMS5003;33504;52.066;6.096;2023-02-01T13:45:49;8;7;
47741;PMS5003;33504;52.066;6.096;2023-02-01T13:48:22;6;3;
47741;PMS5003;33504;52.066;6.096;2023-02-01T13:50:54;4;4;
47741;PMS5003;33504;52.066;6.096;2023-02-01T13:53:26;4;4;
47741;PMS5003;33504;52.066;6.096;2023-02-01T13:55:57;7;6;
47741;PMS5003;33504;52.066;6.096;2023-02-01T13:58:31;4;3;
47741;PMS5003;33504;52.066;6.096;2023-02-01T14:01:31;5;4;
47741;PMS5003;33504;52.066;6.096;2023-02-01T14:04:01;5;5;
47741;PMS5003;33504;52.066;6.096;2023-02-01T14:06:36;8;5;
47741;PMS5003;33504;52.066;6.096;2023-02-01T14:09:12;5;3;
47741;PMS5003;33504;52.066;6.096;2023-02-01T14:11:43;11;9;
47741;PMS5003;33504;52.066;6.096;2023-02-01T14:14:44;5;5;
47741;PMS5003;33504;52.066;6.096;2023-02-01T14:17:29;8;7;
47741;PMS5003;33504;52.066;6.096;2023-02-01T14:20:39;6;5;
47741;PMS5003;33504;52.066;6.096;2023-02-01T14:23:11;8;7;
47741;PMS5003;33504;52.066;6.096;2023-02-01T14:25:41;8;7;
47741;PMS5003;33504;52.066;6.096;2023-02-01T14:28:10;4;4;
47741;PMS5003;33504;52.066;6.096;2023-02-01T14:30:45;10;9;
47741;PMS5003;33504;52.066;6.096;2023-02-01T14:33:22;9;6;
47741;PMS5003;33504;52.066;6.096;2023-02-01T14:36:01;6;4;
47741;PMS5003;33504;52.066;6.096;2023-02-01T14:38:32;7;5;
47741;PMS5003;33504;52.066;6.096;2023-02-01T14:41:24;6;6;
47741;PMS5003;33504;52.066;6.096;2023-02-01T14:44:29;8;7;
47741;PMS5003;33504;52.066;6.096;2023-02-01T14:47:29;6;4;
47741;PMS5003;33504;52.066;6.096;2023-02-01T14:50:04;7;5;
47741;PMS5003;33504;52.066;6.096;2023-02-01T14:52:41;10;9;
47741;PMS5003;33504;52.066;6.096;2023-02-01T14:55:12;9;6;
47741;PMS5003;33504;52.066;6.096;2023-02-01T14:57:43;6;5;
47741;PMS5003;33504;52.066;6.096;2023-02-01T15:00:18;9;7;
47741;PMS5003;33504;52.066;6.096;2023-02-01T15:02:49;9;5;
47741;PMS5003;33504;52.066;6.096;2023-02-01T15:05:23;7;6;
47741;PMS5003;33504;52.066;6.096;2023-02-01T15:07:53;7;4;
47741;PMS5003;33504;52.066;6.096;2023-02-01T15:10:31;7;6;
47741;PMS5003;33504;52.066;6.096;2023-02-01T15:13:07;9;7;
47741;PMS5003;33504;52.066;6.096;2023-02-01T15:15:45;7;5;
47741;PMS5003;33504;52.066;6.096;2023-02-01T15:18:36;9;7;
47741;PMS5003;33504;52.066;6.096;2023-02-01T15:21:03;12;9;
47741;PMS5003;33504;52.066;6.096;2023-02-01T15:23:31;10;9;
47741;PMS5003;33504;52.066;6.096;2023-02-01T15:25:59;10;6;
47741;PMS5003;33504;52.066;6.096;2023-02-01T15:28:26;11;8;
47741;PMS5003;33504;52.066;6.096;2023-02-01T15:30:55;7;7;
47741;PMS5003;33504;52.066;6.096;2023-02-01T15:33:23;6;6;
47741;PMS5003;33504;52.066;6.096;2023-02-01T15:35:52;10;7;
47741;PMS5003;33504;52.066;6.096;2023-02-01T15:38:37;4;4;
47741;PMS5003;33504;52.066;6.096;2023-02-01T15:41:07;2;2;
47741;PMS5003;33504;52.066;6.096;2023-02-01T15:43:40;15;15;
47741;PMS5003;33504;52.066;6.096;2023-02-01T15:46:10;27;23;
47741;PMS5003;33504;52.066;6.096;2023-02-01T15:48:44;2;2;
47741;PMS5003;33504;52.066;6.096;2023-02-01T15:51:15;7;7;
47741;PMS5003;33504;52.066;6.096;2023-02-01T15:53:47;5;4;
47741;PMS5003;33504;52.066;6.096;2023-02-01T15:56:21;3;2;
47741;PMS5003;33504;52.066;6.096;2023-02-01T15:58:51;1;1;
47741;PMS5003;33504;52.066;6.096;2023-02-01T16:01:21;3;2;
47741;PMS5003;33504;52.066;6.096;2023-02-01T16:03:50;2;1;
47741;PMS5003;33504;52.066;6.096;2023-02-01T16:06:31;1;1;
47741;PMS5003;33504;52.066;6.096;2023-02-01T16:09:00;2;2;
47741;PMS5003;33504;52.066;6.096;2023-02-01T16:11:30;1;1;
47741;PMS5003;33504;52.066;6.096;2023-02-01T16:13:59;2;2;
47741;PMS5003;33504;52.066;6.096;2023-02-01T16:16:27;1;1;
47741;PMS5003;33504;52.066;6.096;2023-02-01T16:18:55;2;1;
47741;PMS5003;33504;52.066;6.096;2023-02-01T16:21:23;3;2;
47741;PMS5003;33504;52.066;6.096;2023-02-01T16:23:50;1;1;
47741;PMS5003;33504;52.066;6.096;2023-02-01T16:26:18;1;1;
47741;PMS5003;33504;52.066;6.096;2023-02-01T16:28:46;0;0;
47741;PMS5003;33504;52.066;6.096;2023-02-01T16:31:13;1;1;
47741;PMS5003;33504;52.066;6.096;2023-02-01T16:33:43;3;3;
47741;PMS5003;33504;52.066;6.096;2023-02-01T16:36:09;6;3;
47741;PMS5003;33504;52.066;6.096;2023-02-01T16:38:36;4;3;
47741;PMS5003;33504;52.066;6.096;2023-02-01T16:41:04;6;6;
47741;PMS5003;33504;52.066;6.096;2023-02-01T16:43:31;5;4;
47741;PMS5003;33504;52.066;6.096;2023-02-01T16:45:59;7;6;
47741;PMS5003;33504;52.066;6.096;2023-02-01T16:48:28;8;7;
47741;PMS5003;33504;52.066;6.096;2023-02-01T16:50:59;7;6;
47741;PMS5003;33504;52.066;6.096;2023-02-01T16:53:29;11;9;
47741;PMS5003;33504;52.066;6.096;2023-02-01T16:55:57;9;7;
47741;PMS5003;33504;52.066;6.096;2023-02-01T16:58:26;13;12;
47741;PMS5003;33504;52.066;6.096;2023-02-01T17:00:53;14;13;
47741;PMS5003;33504;52.066;6.096;2023-02-01T17:03:21;31;31;
47741;PMS5003;33504;52.066;6.096;2023-02-01T17:05:49;24;23;
47741;PMS5003;33504;52.066;6.096;2023-02-01T17:08:22;23;23;
47741;PMS5003;33504;52.066;6.096;2023-02-01T17:10:55;2;2;